sensor_id;sensor_type;location;lat;lon;timestamp;temperature;humidity
10451;DHT22;5273;51.290;6.918;2022-09-29T00:00:54;8.10;99.90
10451;DHT22;5273;51.290;6.918;2022-09-29T00:03:21;7.30;99.90
10451;DHT22;5273;51.290;6.918;2022-09-29T00:05:49;8.10;99.90
10451;DHT22;5273;51.290;6.918;2022-09-29T00:08:17;8.10;99.90
10451;DHT22;5273;51.290;6.918;2022-09-29T00:10:45;8.10;99.90
10451;DHT22;5273;51.290;6.918;2022-09-29T00:13:14;8.00;99.90
10451;DHT22;5273;51.290;6.918;2022-09-29T00:15:41;8.10;99.90
10451;DHT22;5273;51.290;6.918;2022-09-29T00:18:08;8.10;99.90
10451;DHT22;5273;51.290;6.918;2022-09-29T00:20:36;8.20;99.90
10451;DHT22;5273;51.290;6.918;2022-09-29T00:23:03;8.90;99.90
10451;DHT22;5273;51.290;6.918;2022-09-29T00:25:30;8.10;99.90
10451;DHT22;5273;51.290;6.918;2022-09-29T00:27:56;8.10;99.90
10451;DHT22;5273;51.290;6.918;2022-09-29T00:30:25;8.10;99.90
10451;DHT22;5273;51.290;6.918;2022-09-29T00:32:52;8.10;99.90
10451;DHT22;5273;51.290;6.918;2022-09-29T00:35:19;8.10;99.90
10451;DHT22;5273;51.290;6.918;2022-09-29T00:37:46;8.00;99.90
10451;DHT22;5273;51.290;6.918;2022-09-29T00:40:13;8.00;99.90
10451;DHT22;5273;51.290;6.918;2022-09-29T00:42:39;7.90;99.90
10451;DHT22;5273;51.290;6.918;2022-09-29T00:45:18;7.90;99.90
10451;DHT22;5273;51.290;6.918;2022-09-29T00:47:51;7.90;99.90
10451;DHT22;5273;51.290;6.918;2022-09-29T00:50:22;7.70;99.90
10451;DHT22;5273;51.290;6.918;2022-09-29T00:52:54;7.80;99.90
10451;DHT22;5273;51.290;6.918;2022-09-29T00:55:25;7.80;99.90
10451;DHT22;5273;51.290;6.918;2022-09-29T00:57:56;7.80;99.90
10451;DHT22;5273;51.290;6.918;2022-09-29T01:00:25;7.80;99.90
10451;DHT22;5273;51.290;6.918;2022-09-29T01:02:56;7.80;99.90
10451;DHT22;5273;51.290;6.918;2022-09-29T01:05:28;7.80;99.90
10451;DHT22;5273;51.290;6.918;2022-09-29T01:07:58;7.80;99.90
10451;DHT22;5273;51.290;6.918;2022-09-29T01:10:27;7.80;99.90
10451;DHT22;5273;51.290;6.918;2022-09-29T01:12:54;7.80;99.90
10451;DHT22;5273;51.290;6.918;2022-09-29T01:15:21;7.80;99.90
10451;DHT22;5273;51.290;6.918;2022-09-29T01:17:48;7.80;99.90
10451;DHT22;5273;51.290;6.918;2022-09-29T01:20:18;7.70;99.90
10451;DHT22;5273;51.290;6.918;2022-09-29T01:23:26;7.90;99.90
10451;DHT22;5273;51.290;6.918;2022-09-29T01:26:39;7.80;99.90
10451;DHT22;5273;51.290;6.918;2022-09-29T01:32:24;7.70;99.90
10451;DHT22;5273;51.290;6.918;2022-09-29T01:35:00;7.70;99.90
10451;DHT22;5273;51.290;6.918;2022-09-29T01:37:38;7.70;99.90
10451;DHT22;5273;51.290;6.918;2022-09-29T01:40:14;7.70;99.90
10451;DHT22;5273;51.290;6.918;2022-09-29T01:42:49;7.70;99.90
10451;DHT22;5273;51.290;6.918;2022-09-29T01:45:22;7.70;99.90
10451;DHT22;5273;51.290;6.918;2022-09-29T01:47:56;7.70;99.90
10451;DHT22;5273;51.290;6.918;2022-09-29T01:50:26;7.70;99.90
10451;DHT22;5273;51.290;6.918;2022-09-29T01:52:58;7.70;99.90
10451;DHT22;5273;51.290;6.918;2022-09-29T01:55:29;7.70;99.90
10451;DHT22;5273;51.290;6.918;2022-09-29T01:58:01;7.70;99.90
10451;DHT22;5273;51.290;6.918;2022-09-29T02:00:29;7.70;99.90
10451;DHT22;5273;51.290;6.918;2022-09-29T02:03:04;7.70;99.90
10451;DHT22;5273;51.290;6.918;2022-09-29T02:05:37;7.60;99.90
10451;DHT22;5273;51.290;6.918;2022-09-29T02:08:09;7.60;99.90
10451;DHT22;5273;51.290;6.918;2022-09-29T02:10:42;7.50;99.90
10451;DHT22;5273;51.290;6.918;2022-09-29T02:13:14;7.50;99.90
10451;DHT22;5273;51.290;6.918;2022-09-29T02:15:44;7.80;99.90
10451;DHT22;5273;51.290;6.918;2022-09-29T02:18:16;7.50;99.90
10451;DHT22;5273;51.290;6.918;2022-09-29T02:20:45;7.40;99.90
10451;DHT22;5273;51.290;6.918;2022-09-29T02:23:12;7.40;99.90
10451;DHT22;5273;51.290;6.918;2022-09-29T02:25:39;7.40;99.90
10451;DHT22;5273;51.290;6.918;2022-09-29T02:28:07;7.40;99.90
10451;DHT22;5273;51.290;6.918;2022-09-29T02:30:34;7.40;99.90
10451;DHT22;5273;51.290;6.918;2022-09-29T02:33:01;7.40;99.90
10451;DHT22;5273;51.290;6.918;2022-09-29T02:35:40;7.40;99.90
10451;DHT22;5273;51.290;6.918;2022-09-29T02:38:13;7.40;99.90
10451;DHT22;5273;51.290;6.918;2022-09-29T02:40:47;7.40;99.90
10451;DHT22;5273;51.290;6.918;2022-09-29T02:43:36;7.30;99.90
10451;DHT22;5273;51.290;6.918;2022-09-29T02:46:13;7.30;99.90
10451;DHT22;5273;51.290;6.918;2022-09-29T02:48:58;7.30;99.90
10451;DHT22;5273;51.290;6.918;2022-09-29T02:51:36;7.30;99.90
10451;DHT22;5273;51.290;6.918;2022-09-29T02:54:18;7.30;99.90
10451;DHT22;5273;51.290;6.918;2022-09-29T02:56:53;7.30;99.90
10451;DHT22;5273;51.290;6.918;2022-09-29T02:59:30;7.20;99.90
10451;DHT22;5273;51.290;6.918;2022-09-29T03:01:59;7.20;99.90
10451;DHT22;5273;51.290;6.918;2022-09-29T03:04:27;7.20;99.90
10451;DHT22;5273;51.290;6.918;2022-09-29T03:06:56;7.20;99.90
10451;DHT22;5273;51.290;6.918;2022-09-29T03:09:22;7.20;99.90
10451;DHT22;5273;51.290;6.918;2022-09-29T03:11:49;6.40;99.90
10451;DHT22;5273;51.290;6.918;2022-09-29T03:14:16;7.20;99.90
10451;DHT22;5273;51.290;6.918;2022-09-29T03:16:43;7.10;99.90
10451;DHT22;5273;51.290;6.918;2022-09-29T03:19:10;7.20;99.90
10451;DHT22;5273;51.290;6.918;2022-09-29T03:21:36;7.10;99.90
10451;DHT22;5273;51.290;6.918;2022-09-29T03:24:05;7.10;99.90
10451;DHT22;5273;51.290;6.918;2022-09-29T03:26:32;7.10;99.90
10451;DHT22;5273;51.290;6.918;2022-09-29T03:28:59;7.10;99.90
10451;DHT22;5273;51.290;6.918;2022-09-29T03:31:25;7.00;99.90
10451;DHT22;5273;51.290;6.918;2022-09-29T03:33:52;7.10;99.90
10451;DHT22;5273;51.290;6.918;2022-09-29T03:36:19;7.10;99.90
10451;DHT22;5273;51.290;6.918;2022-09-29T03:38:46;7.00;99.90
10451;DHT22;5273;51.290;6.918;2022-09-29T03:41:14;7.00;99.90
10451;DHT22;5273;51.290;6.918;2022-09-29T03:43:41;7.00;99.90
10451;DHT22;5273;51.290;6.918;2022-09-29T03:46:08;7.10;99.90
10451;DHT22;5273;51.290;6.918;2022-09-29T03:48:34;7.10;99.90
10451;DHT22;5273;51.290;6.918;2022-09-29T03:51:01;7.10;99.90
10451;DHT22;5273;51.290;6.918;2022-09-29T03:53:28;6.80;99.90
10451;DHT22;5273;51.290;6.918;2022-09-29T03:55:55;7.00;99.90
10451;DHT22;5273;51.290;6.918;2022-09-29T03:58:23;7.00;99.90
10451;DHT22;5273;51.290;6.918;2022-09-29T04:00:50;7.00;99.90
10451;DHT22;5273;51.290;6.918;2022-09-29T04:03:17;7.00;99.90
10451;DHT22;5273;51.290;6.918;2022-09-29T04:05:44;7.00;99.90
10451;DHT22;5273;51.290;6.918;2022-09-29T04:08:11;6.90;99.90
10451;DHT22;5273;51.290;6.918;2022-09-29T04:10:39;6.90;99.90
10451;DHT22;5273;51.290;6.918;2022-09-29T04:13:07;7.80;99.90
10451;DHT22;5273;51.290;6.918;2022-09-29T04:15:35;6.90;99.90
10451;DHT22;5273;51.290;6.918;2022-09-29T04:18:02;6.90;99.90
10451;DHT22;5273;51.290;6.918;2022-09-29T04:20:29;6.90;99.90
10451;DHT22;5273;51.290;6.918;2022-09-29T04:22:56;6.90;99.90
10451;DHT22;5273;51.290;6.918;2022-09-29T04:25:23;6.90;99.90
10451;DHT22;5273;51.290;6.918;2022-09-29T04:27:50;6.90;99.90
10451;DHT22;5273;51.290;6.918;2022-09-29T04:30:16;6.90;99.90
10451;DHT22;5273;51.290;6.918;2022-09-29T04:32:45;6.90;99.90
10451;DHT22;5273;51.290;6.918;2022-09-29T04:35:11;6.80;99.90
10451;DHT22;5273;51.290;6.918;2022-09-29T04:37:38;6.80;99.90
10451;DHT22;5273;51.290;6.918;2022-09-29T04:40:06;6.70;99.90
10451;DHT22;5273;51.290;6.918;2022-09-29T04:42:33;6.70;99.90
10451;DHT22;5273;51.290;6.918;2022-09-29T04:44:59;7.00;99.90
10451;DHT22;5273;51.290;6.918;2022-09-29T04:47:26;6.70;99.90
10451;DHT22;5273;51.290;6.918;2022-09-29T04:49:54;6.70;99.90
10451;DHT22;5273;51.290;6.918;2022-09-29T04:52:21;6.70;99.90
10451;DHT22;5273;51.290;6.918;2022-09-29T04:54:48;6.60;99.90
10451;DHT22;5273;51.290;6.918;2022-09-29T04:57:15;6.60;99.90
10451;DHT22;5273;51.290;6.918;2022-09-29T04:59:41;6.60;99.90
10451;DHT22;5273;51.290;6.918;2022-09-29T05:02:08;6.70;99.90
10451;DHT22;5273;51.290;6.918;2022-09-29T05:04:35;6.60;99.90
10451;DHT22;5273;51.290;6.918;2022-09-29T05:07:03;6.60;99.90
10451;DHT22;5273;51.290;6.918;2022-09-29T05:09:30;6.60;99.90
10451;DHT22;5273;51.290;6.918;2022-09-29T05:11:57;6.50;99.90
10451;DHT22;5273;51.290;6.918;2022-09-29T05:14:23;6.50;99.90
10451;DHT22;5273;51.290;6.918;2022-09-29T05:16:53;6.60;99.90
10451;DHT22;5273;51.290;6.918;2022-09-29T05:19:19;6.60;99.90
10451;DHT22;5273;51.290;6.918;2022-09-29T05:21:46;6.60;99.90
10451;DHT22;5273;51.290;6.918;2022-09-29T05:24:14;6.60;99.90
10451;DHT22;5273;51.290;6.918;2022-09-29T05:26:41;6.60;99.90
10451;DHT22;5273;51.290;6.918;2022-09-29T05:29:08;6.60;99.90
10451;DHT22;5273;51.290;6.918;2022-09-29T05:31:35;6.60;99.90
10451;DHT22;5273;51.290;6.918;2022-09-29T05:34:01;6.60;99.90
10451;DHT22;5273;51.290;6.918;2022-09-29T05:36:28;6.60;99.90
10451;DHT22;5273;51.290;6.918;2022-09-29T05:38:55;6.50;99.90
10451;DHT22;5273;51.290;6.918;2022-09-29T05:41:23;6.60;99.90
10451;DHT22;5273;51.290;6.918;2022-09-29T05:43:50;6.70;99.90
10451;DHT22;5273;51.290;6.918;2022-09-29T05:46:18;6.60;99.90
10451;DHT22;5273;51.290;6.918;2022-09-29T05:48:45;6.60;99.90
10451;DHT22;5273;51.290;6.918;2022-09-29T05:51:13;6.60;99.90
10451;DHT22;5273;51.290;6.918;2022-09-29T05:53:40;6.60;99.90
10451;DHT22;5273;51.290;6.918;2022-09-29T05:56:09;6.70;99.90
10451;DHT22;5273;51.290;6.918;2022-09-29T05:58:38;6.70;99.90
10451;DHT22;5273;51.290;6.918;2022-09-29T06:01:06;6.80;99.90
10451;DHT22;5273;51.290;6.918;2022-09-29T06:03:33;6.90;99.90
10451;DHT22;5273;51.290;6.918;2022-09-29T06:06:05;7.00;99.90
10451;DHT22;5273;51.290;6.918;2022-09-29T06:08:32;7.10;99.90
10451;DHT22;5273;51.290;6.918;2022-09-29T06:11:03;7.30;99.90
10451;DHT22;5273;51.290;6.918;2022-09-29T06:13:30;7.40;99.90
10451;DHT22;5273;51.290;6.918;2022-09-29T06:15:59;7.50;99.90
10451;DHT22;5273;51.290;6.918;2022-09-29T06:18:26;7.80;99.90
10451;DHT22;5273;51.290;6.918;2022-09-29T06:20:53;8.30;99.90
10451;DHT22;5273;51.290;6.918;2022-09-29T06:23:19;9.10;99.90
10451;DHT22;5273;51.290;6.918;2022-09-29T06:25:46;9.90;99.90
10451;DHT22;5273;51.290;6.918;2022-09-29T06:28:13;10.70;99.90
10451;DHT22;5273;51.290;6.918;2022-09-29T06:30:39;11.60;99.90
10451;DHT22;5273;51.290;6.918;2022-09-29T06:33:08;12.40;99.90
10451;DHT22;5273;51.290;6.918;2022-09-29T06:35:35;13.20;99.90
10451;DHT22;5273;51.290;6.918;2022-09-29T06:38:19;13.90;99.90
10451;DHT22;5273;51.290;6.918;2022-09-29T06:40:46;14.40;97.00
10451;DHT22;5273;51.290;6.918;2022-09-29T06:43:13;15.10;96.20
10451;DHT22;5273;51.290;6.918;2022-09-29T06:45:40;15.70;94.80
10451;DHT22;5273;51.290;6.918;2022-09-29T06:48:08;16.30;94.00
10451;DHT22;5273;51.290;6.918;2022-09-29T06:50:35;16.90;91.90
10451;DHT22;5273;51.290;6.918;2022-09-29T06:53:02;17.60;90.30
10451;DHT22;5273;51.290;6.918;2022-09-29T06:55:29;18.30;88.40
10451;DHT22;5273;51.290;6.918;2022-09-29T06:57:56;18.90;81.40
10451;DHT22;5273;51.290;6.918;2022-09-29T07:00:23;19.40;80.50
10451;DHT22;5273;51.290;6.918;2022-09-29T07:02:50;20.10;77.90
10451;DHT22;5273;51.290;6.918;2022-09-29T07:05:18;20.50;71.40
10451;DHT22;5273;51.290;6.918;2022-09-29T07:07:47;20.80;70.30
10451;DHT22;5273;51.290;6.918;2022-09-29T07:10:14;21.20;68.20
10451;DHT22;5273;51.290;6.918;2022-09-29T07:12:41;21.50;65.30
10451;DHT22;5273;51.290;6.918;2022-09-29T07:15:11;21.70;64.00
10451;DHT22;5273;51.290;6.918;2022-09-29T07:17:38;22.20;61.70
10451;DHT22;5273;51.290;6.918;2022-09-29T07:20:06;22.70;62.40
10451;DHT22;5273;51.290;6.918;2022-09-29T07:22:34;23.40;59.40
10451;DHT22;5273;51.290;6.918;2022-09-29T07:25:01;24.00;57.10
10451;DHT22;5273;51.290;6.918;2022-09-29T07:27:28;24.60;55.10
10451;DHT22;5273;51.290;6.918;2022-09-29T07:29:54;25.20;52.40
10451;DHT22;5273;51.290;6.918;2022-09-29T07:32:21;25.60;50.20
10451;DHT22;5273;51.290;6.918;2022-09-29T07:34:48;26.00;48.50
10451;DHT22;5273;51.290;6.918;2022-09-29T07:37:14;26.40;47.60
10451;DHT22;5273;51.290;6.918;2022-09-29T07:39:43;26.90;45.40
10451;DHT22;5273;51.290;6.918;2022-09-29T07:42:09;27.20;45.00
10451;DHT22;5273;51.290;6.918;2022-09-29T07:44:36;27.50;43.90
10451;DHT22;5273;51.290;6.918;2022-09-29T07:47:03;27.60;42.10
10451;DHT22;5273;51.290;6.918;2022-09-29T07:49:30;27.80;42.20
10451;DHT22;5273;51.290;6.918;2022-09-29T07:51:57;27.60;42.00
10451;DHT22;5273;51.290;6.918;2022-09-29T07:54:24;27.70;41.30
10451;DHT22;5273;51.290;6.918;2022-09-29T07:56:52;27.80;40.80
10451;DHT22;5273;51.290;6.918;2022-09-29T07:59:18;28.00;40.70
10451;DHT22;5273;51.290;6.918;2022-09-29T08:01:45;28.30;40.50
10451;DHT22;5273;51.290;6.918;2022-09-29T08:04:12;28.70;39.40
10451;DHT22;5273;51.290;6.918;2022-09-29T08:06:39;29.10;38.80
10451;DHT22;5273;51.290;6.918;2022-09-29T08:09:06;29.50;37.00
10451;DHT22;5273;51.290;6.918;2022-09-29T08:11:36;29.80;36.10
10451;DHT22;5273;51.290;6.918;2022-09-29T08:14:05;29.80;35.80
10451;DHT22;5273;51.290;6.918;2022-09-29T08:16:33;30.10;35.10
10451;DHT22;5273;51.290;6.918;2022-09-29T08:19:00;29.60;34.40
10451;DHT22;5273;51.290;6.918;2022-09-29T08:21:27;30.70;34.90
10451;DHT22;5273;51.290;6.918;2022-09-29T08:23:54;30.70;34.30
10451;DHT22;5273;51.290;6.918;2022-09-29T08:26:21;30.90;34.10
10451;DHT22;5273;51.290;6.918;2022-09-29T08:28:48;31.20;33.40
10451;DHT22;5273;51.290;6.918;2022-09-29T08:31:18;31.60;33.00
10451;DHT22;5273;51.290;6.918;2022-09-29T08:33:46;31.60;31.10
10451;DHT22;5273;51.290;6.918;2022-09-29T08:36:14;31.60;31.70
10451;DHT22;5273;51.290;6.918;2022-09-29T08:38:42;31.90;32.40
10451;DHT22;5273;51.290;6.918;2022-09-29T08:41:31;32.20;31.50
10451;DHT22;5273;51.290;6.918;2022-09-29T08:44:02;32.50;31.30
10451;DHT22;5273;51.290;6.918;2022-09-29T08:46:34;32.90;30.60
10451;DHT22;5273;51.290;6.918;2022-09-29T08:49:09;33.10;29.10
10451;DHT22;5273;51.290;6.918;2022-09-29T08:51:41;32.70;30.40
10451;DHT22;5273;51.290;6.918;2022-09-29T08:54:17;32.70;29.90
10451;DHT22;5273;51.290;6.918;2022-09-29T08:56:47;33.40;30.10
10451;DHT22;5273;51.290;6.918;2022-09-29T08:59:13;33.40;29.20
10451;DHT22;5273;51.290;6.918;2022-09-29T09:01:50;33.60;29.60
10451;DHT22;5273;51.290;6.918;2022-09-29T09:04:51;33.70;29.40
10451;DHT22;5273;51.290;6.918;2022-09-29T09:07:28;33.90;28.50
10451;DHT22;5273;51.290;6.918;2022-09-29T09:10:12;34.00;27.90
10451;DHT22;5273;51.290;6.918;2022-09-29T09:12:53;34.20;28.30
10451;DHT22;5273;51.290;6.918;2022-09-29T09:15:40;34.30;28.10
10451;DHT22;5273;51.290;6.918;2022-09-29T09:21:24;34.30;27.40
10451;DHT22;5273;51.290;6.918;2022-09-29T09:23:54;34.10;27.40
10451;DHT22;5273;51.290;6.918;2022-09-29T09:26:25;34.10;27.40
10451;DHT22;5273;51.290;6.918;2022-09-29T09:28:58;34.20;27.20
10451;DHT22;5273;51.290;6.918;2022-09-29T09:31:31;34.30;26.90
10451;DHT22;5273;51.290;6.918;2022-09-29T09:34:05;34.30;27.10
10451;DHT22;5273;51.290;6.918;2022-09-29T09:36:35;34.20;26.90
10451;DHT22;5273;51.290;6.918;2022-09-29T09:39:04;34.20;26.90
10451;DHT22;5273;51.290;6.918;2022-09-29T09:41:34;34.20;27.50
10451;DHT22;5273;51.290;6.918;2022-09-29T09:44:08;34.20;27.90
10451;DHT22;5273;51.290;6.918;2022-09-29T09:46:40;34.60;28.20
10451;DHT22;5273;51.290;6.918;2022-09-29T09:49:15;35.10;28.10
10451;DHT22;5273;51.290;6.918;2022-09-29T09:51:48;35.40;26.80
10451;DHT22;5273;51.290;6.918;2022-09-29T09:54:25;35.70;26.20
10451;DHT22;5273;51.290;6.918;2022-09-29T09:57:15;36.00;24.90
10451;DHT22;5273;51.290;6.918;2022-09-29T09:59:55;36.00;25.40
10451;DHT22;5273;51.290;6.918;2022-09-29T10:02:25;36.10;24.80
10451;DHT22;5273;51.290;6.918;2022-09-29T10:04:54;36.20;24.80
10451;DHT22;5273;51.290;6.918;2022-09-29T10:07:24;36.40;24.90
10451;DHT22;5273;51.290;6.918;2022-09-29T10:09:53;36.70;25.30
10451;DHT22;5273;51.290;6.918;2022-09-29T10:12:22;36.80;25.20
10451;DHT22;5273;51.290;6.918;2022-09-29T10:14:53;36.80;24.40
10451;DHT22;5273;51.290;6.918;2022-09-29T10:17:25;36.60;25.10
10451;DHT22;5273;51.290;6.918;2022-09-29T10:20:00;36.20;25.00
10451;DHT22;5273;51.290;6.918;2022-09-29T10:22:29;35.70;24.70
10451;DHT22;5273;51.290;6.918;2022-09-29T10:25:06;35.00;25.60
10451;DHT22;5273;51.290;6.918;2022-09-29T10:27:35;34.10;25.50
10451;DHT22;5273;51.290;6.918;2022-09-29T10:30:16;33.10;26.70
10451;DHT22;5273;51.290;6.918;2022-09-29T10:32:44;32.40;28.20
10451;DHT22;5273;51.290;6.918;2022-09-29T10:35:21;32.00;28.60
10451;DHT22;5273;51.290;6.918;2022-09-29T10:37:58;31.50;28.30
10451;DHT22;5273;51.290;6.918;2022-09-29T10:40:25;30.90;28.10
10451;DHT22;5273;51.290;6.918;2022-09-29T10:42:52;29.90;30.00
10451;DHT22;5273;51.290;6.918;2022-09-29T10:45:21;29.20;31.60
10451;DHT22;5273;51.290;6.918;2022-09-29T10:48:06;28.70;33.50
10451;DHT22;5273;51.290;6.918;2022-09-29T10:50:36;28.70;33.60
10451;DHT22;5273;51.290;6.918;2022-09-29T10:53:20;28.50;32.40
10451;DHT22;5273;51.290;6.918;2022-09-29T10:55:51;28.20;32.10
10451;DHT22;5273;51.290;6.918;2022-09-29T10:58:24;27.70;35.40
10451;DHT22;5273;51.290;6.918;2022-09-29T11:01:03;27.30;34.90
10451;DHT22;5273;51.290;6.918;2022-09-29T11:03:33;27.00;34.30
10451;DHT22;5273;51.290;6.918;2022-09-29T11:06:05;26.90;35.20
10451;DHT22;5273;51.290;6.918;2022-09-29T11:08:54;26.70;35.00
10451;DHT22;5273;51.290;6.918;2022-09-29T11:11:24;26.50;35.90
10451;DHT22;5273;51.290;6.918;2022-09-29T11:13:52;26.20;37.20
10451;DHT22;5273;51.290;6.918;2022-09-29T11:16:28;26.10;36.60
10451;DHT22;5273;51.290;6.918;2022-09-29T11:18:58;26.00;37.70
10451;DHT22;5273;51.290;6.918;2022-09-29T11:24:37;25.90;35.20
10451;DHT22;5273;51.290;6.918;2022-09-29T11:27:14;25.70;35.40
10451;DHT22;5273;51.290;6.918;2022-09-29T11:29:50;25.60;36.70
10451;DHT22;5273;51.290;6.918;2022-09-29T11:32:34;25.50;39.20
10451;DHT22;5273;51.290;6.918;2022-09-29T11:35:16;25.50;37.80
10451;DHT22;5273;51.290;6.918;2022-09-29T11:38:03;25.30;37.80
10451;DHT22;5273;51.290;6.918;2022-09-29T11:40:43;24.90;38.70
10451;DHT22;5273;51.290;6.918;2022-09-29T11:43:28;24.60;39.10
10451;DHT22;5273;51.290;6.918;2022-09-29T11:46:04;24.30;39.40
10451;DHT22;5273;51.290;6.918;2022-09-29T11:48:49;24.10;39.20
10451;DHT22;5273;51.290;6.918;2022-09-29T11:51:26;23.80;40.10
10451;DHT22;5273;51.290;6.918;2022-09-29T11:54:16;23.60;40.20
10451;DHT22;5273;51.290;6.918;2022-09-29T11:56:56;23.50;41.40
10451;DHT22;5273;51.290;6.918;2022-09-29T11:59:36;23.10;41.80
10451;DHT22;5273;51.290;6.918;2022-09-29T12:02:24;23.00;41.10
10451;DHT22;5273;51.290;6.918;2022-09-29T12:04:57;23.10;40.00
10451;DHT22;5273;51.290;6.918;2022-09-29T12:07:34;23.20;39.60
10451;DHT22;5273;51.290;6.918;2022-09-29T12:10:29;23.40;39.70
10451;DHT22;5273;51.290;6.918;2022-09-29T12:13:05;23.60;40.90
10451;DHT22;5273;51.290;6.918;2022-09-29T12:15:43;23.70;41.00
10451;DHT22;5273;51.290;6.918;2022-09-29T12:18:15;23.80;40.90
10451;DHT22;5273;51.290;6.918;2022-09-29T12:20:46;23.70;39.40
10451;DHT22;5273;51.290;6.918;2022-09-29T12:23:17;23.50;40.00
10451;DHT22;5273;51.290;6.918;2022-09-29T12:25:52;23.40;39.60
10451;DHT22;5273;51.290;6.918;2022-09-29T12:28:27;23.10;41.20
10451;DHT22;5273;51.290;6.918;2022-09-29T12:30:59;22.80;42.70
10451;DHT22;5273;51.290;6.918;2022-09-29T12:33:32;22.60;42.80
10451;DHT22;5273;51.290;6.918;2022-09-29T12:36:14;22.30;43.30
10451;DHT22;5273;51.290;6.918;2022-09-29T12:39:03;22.10;43.50
10451;DHT22;5273;51.290;6.918;2022-09-29T12:41:37;22.00;44.40
10451;DHT22;5273;51.290;6.918;2022-09-29T12:44:13;21.90;43.30
10451;DHT22;5273;51.290;6.918;2022-09-29T12:46:46;21.70;43.80
10451;DHT22;5273;51.290;6.918;2022-09-29T12:49:20;21.50;44.40
10451;DHT22;5273;51.290;6.918;2022-09-29T12:51:48;21.50;44.20
10451;DHT22;5273;51.290;6.918;2022-09-29T12:54:19;21.60;44.40
10451;DHT22;5273;51.290;6.918;2022-09-29T12:56:49;21.60;43.20
10451;DHT22;5273;51.290;6.918;2022-09-29T12:59:26;21.60;42.60
10451;DHT22;5273;51.290;6.918;2022-09-29T13:01:56;21.60;42.40
10451;DHT22;5273;51.290;6.918;2022-09-29T13:04:52;21.50;43.20
10451;DHT22;5273;51.290;6.918;2022-09-29T13:07:55;21.50;43.30
10451;DHT22;5273;51.290;6.918;2022-09-29T13:10:48;21.50;42.50
10451;DHT22;5273;51.290;6.918;2022-09-29T13:16:26;21.50;43.80
10451;DHT22;5273;51.290;6.918;2022-09-29T13:25:04;20.80;43.10
10451;DHT22;5273;51.290;6.918;2022-09-29T13:27:37;21.00;41.90
10451;DHT22;5273;51.290;6.918;2022-09-29T13:30:12;20.80;42.90
10451;DHT22;5273;51.290;6.918;2022-09-29T13:32:43;20.70;42.70
10451;DHT22;5273;51.290;6.918;2022-09-29T13:35:13;20.60;43.00
10451;DHT22;5273;51.290;6.918;2022-09-29T13:37:47;20.50;44.30
10451;DHT22;5273;51.290;6.918;2022-09-29T13:40:18;20.40;44.40
10451;DHT22;5273;51.290;6.918;2022-09-29T13:42:46;19.80;43.60
10451;DHT22;5273;51.290;6.918;2022-09-29T13:45:36;20.20;45.00
10451;DHT22;5273;51.290;6.918;2022-09-29T13:48:44;20.20;46.10
10451;DHT22;5273;51.290;6.918;2022-09-29T13:54:20;20.10;47.50
10451;DHT22;5273;51.290;6.918;2022-09-29T13:56:49;20.00;46.90
10451;DHT22;5273;51.290;6.918;2022-09-29T13:59:21;20.00;46.80
10451;DHT22;5273;51.290;6.918;2022-09-29T14:01:48;20.00;47.10
10451;DHT22;5273;51.290;6.918;2022-09-29T14:04:39;20.00;46.30
10451;DHT22;5273;51.290;6.918;2022-09-29T14:07:11;20.10;46.40
10451;DHT22;5273;51.290;6.918;2022-09-29T14:09:40;20.00;46.00
10451;DHT22;5273;51.290;6.918;2022-09-29T14:12:14;20.00;46.40
10451;DHT22;5273;51.290;6.918;2022-09-29T14:14:44;19.90;46.80
10451;DHT22;5273;51.290;6.918;2022-09-29T14:17:15;19.90;46.60
10451;DHT22;5273;51.290;6.918;2022-09-29T14:19:51;19.90;45.90
10451;DHT22;5273;51.290;6.918;2022-09-29T14:22:56;19.90;45.90
10451;DHT22;5273;51.290;6.918;2022-09-29T14:28:24;19.80;46.60
10451;DHT22;5273;51.290;6.918;2022-09-29T14:30:56;19.60;48.50
10451;DHT22;5273;51.290;6.918;2022-09-29T14:33:32;19.50;50.10
10451;DHT22;5273;51.290;6.918;2022-09-29T14:36:04;19.40;52.00
10451;DHT22;5273;51.290;6.918;2022-09-29T14:38:35;19.20;53.20
10451;DHT22;5273;51.290;6.918;2022-09-29T14:41:23;19.10;54.50
10451;DHT22;5273;51.290;6.918;2022-09-29T14:43:52;18.90;54.00
10451;DHT22;5273;51.290;6.918;2022-09-29T14:46:40;18.80;54.10
10451;DHT22;5273;51.290;6.918;2022-09-29T14:52:56;18.60;53.00
10451;DHT22;5273;51.290;6.918;2022-09-29T14:55:33;18.40;53.60
10451;DHT22;5273;51.290;6.918;2022-09-29T14:58:19;18.30;51.90
10451;DHT22;5273;51.290;6.918;2022-09-29T15:01:01;18.20;50.70
10451;DHT22;5273;51.290;6.918;2022-09-29T15:03:35;18.30;51.60
10451;DHT22;5273;51.290;6.918;2022-09-29T15:06:11;18.30;50.60
10451;DHT22;5273;51.290;6.918;2022-09-29T15:08:40;18.40;50.10
10451;DHT22;5273;51.290;6.918;2022-09-29T15:11:25;16.80;47.30
10451;DHT22;5273;51.290;6.918;2022-09-29T15:13:52;18.30;48.00
10451;DHT22;5273;51.290;6.918;2022-09-29T15:16:26;18.40;48.10
10451;DHT22;5273;51.290;6.918;2022-09-29T15:22:02;18.30;49.90
10451;DHT22;5273;51.290;6.918;2022-09-29T15:24:49;18.50;50.30
10451;DHT22;5273;51.290;6.918;2022-09-29T15:27:20;18.50;50.10
10451;DHT22;5273;51.290;6.918;2022-09-29T15:29:52;18.60;50.30
10451;DHT22;5273;51.290;6.918;2022-09-29T15:32:22;18.60;49.50
10451;DHT22;5273;51.290;6.918;2022-09-29T15:34:50;18.70;50.80
10451;DHT22;5273;51.290;6.918;2022-09-29T15:37:18;18.70;51.40
10451;DHT22;5273;51.290;6.918;2022-09-29T15:39:49;18.70;50.90
10451;DHT22;5273;51.290;6.918;2022-09-29T15:42:20;18.30;50.80
10451;DHT22;5273;51.290;6.918;2022-09-29T15:44:52;19.20;52.00
10451;DHT22;5273;51.290;6.918;2022-09-29T15:47:26;18.70;51.40
10451;DHT22;5273;51.290;6.918;2022-09-29T15:49:54;18.70;52.70
10451;DHT22;5273;51.290;6.918;2022-09-29T15:52:21;18.60;52.30
10451;DHT22;5273;51.290;6.918;2022-09-29T15:54:57;18.50;52.40
10451;DHT22;5273;51.290;6.918;2022-09-29T15:57:28;18.40;52.70
10451;DHT22;5273;51.290;6.918;2022-09-29T16:00:41;18.10;53.70
10451;DHT22;5273;51.290;6.918;2022-09-29T16:03:11;18.10;54.90
10451;DHT22;5273;51.290;6.918;2022-09-29T16:05:41;18.00;56.10
10451;DHT22;5273;51.290;6.918;2022-09-29T16:08:15;18.20;57.40
10451;DHT22;5273;51.290;6.918;2022-09-29T16:10:50;17.80;57.80
10451;DHT22;5273;51.290;6.918;2022-09-29T16:13:19;17.80;57.10
10451;DHT22;5273;51.290;6.918;2022-09-29T16:15:49;17.70;57.30
10451;DHT22;5273;51.290;6.918;2022-09-29T16:18:20;17.70;58.00
10451;DHT22;5273;51.290;6.918;2022-09-29T16:20:49;17.60;57.10
10451;DHT22;5273;51.290;6.918;2022-09-29T16:23:19;16.30;56.60
10451;DHT22;5273;51.290;6.918;2022-09-29T16:26:08;16.30;57.80
10451;DHT22;5273;51.290;6.918;2022-09-29T16:28:37;17.40;58.90
10451;DHT22;5273;51.290;6.918;2022-09-29T16:31:09;18.80;61.00
10451;DHT22;5273;51.290;6.918;2022-09-29T16:33:44;16.50;59.60
10451;DHT22;5273;51.290;6.918;2022-09-29T16:36:12;17.20;61.40
10451;DHT22;5273;51.290;6.918;2022-09-29T16:38:41;17.10;60.80
10451;DHT22;5273;51.290;6.918;2022-09-29T16:41:18;15.70;59.50
10451;DHT22;5273;51.290;6.918;2022-09-29T16:43:46;16.90;61.80
10451;DHT22;5273;51.290;6.918;2022-09-29T16:46:20;16.90;63.60
10451;DHT22;5273;51.290;6.918;2022-09-29T16:48:48;16.90;62.30
10451;DHT22;5273;51.290;6.918;2022-09-29T16:51:18;16.80;60.90
10451;DHT22;5273;51.290;6.918;2022-09-29T16:53:45;16.70;61.20